Time;durP1;ratioP1;P1;durP2;ratioP2;P2;SDS_P1;SDS_P2;PMS_P1;PMS_P2;Temp;Humidity;BMP_temperature;BMP_pressure;BME280_temperature;BME280_humidity;BME280_pressure;Samples;Min_cycle;Max_cycle;Signal;HPM_P1;HPM_P2
2022/05/19 00:02:10;;;;;;;;;12.00;12.00;;;;;24.44;54.71;100702.41;4973610;28;45367;-68
2022/05/19 00:04:36;;;;;;;;;14.25;12.00;;;;;24.41;54.86;100700.03;4973212;28;45343;-68
2022/05/19 00:07:02;;;;;;;;;13.25;12.75;;;;;24.43;55.01;100698.03;4973320;28;45268;-69
2022/05/19 00:09:28;;;;;;;;;14.25;12.25;;;;;24.43;55.07;100692.66;4973337;28;45385;-68
2022/05/19 00:11:55;;;;;;;;;15.00;12.00;;;;;24.45;54.96;100686.13;4973346;28;45283;-65
2022/05/19 00:14:21;;;;;;;;;17.50;14.00;;;;;24.48;54.78;100690.38;4974127;28;46275;-68
2022/05/19 00:16:48;;;;;;;;;13.50;13.50;;;;;24.48;55.14;100696.56;4974986;28;45311;-67
2022/05/19 00:19:14;;;;;;;;;11.50;11.50;;;;;24.50;54.72;100704.50;4972625;28;45424;-68
2022/05/19 00:21:40;;;;;;;;;18.75;15.75;;;;;24.48;55.38;100701.97;4973440;28;45489;-68
2022/05/19 00:24:07;;;;;;;;;14.50;14.50;;;;;24.51;54.75;100703.50;4972852;28;46636;-68
2022/05/19 00:26:32;;;;;;;;;15.25;13.50;;;;;24.50;54.98;100699.13;4972769;28;45182;-69
2022/05/19 00:28:58;;;;;;;;;15.00;15.00;;;;;24.53;54.92;100695.28;4973212;28;45183;-69
2022/05/19 00:31:23;;;;;;;;;13.75;13.25;;;;;24.49;55.31;100678.63;4973770;28;45216;-68
2022/05/19 00:33:48;;;;;;;;;13.00;12.00;;;;;24.50;54.98;100697.28;4973418;28;46037;-70
2022/05/19 00:36:18;;;;;;;;;15.50;15.50;;;;;24.45;55.23;100674.53;4972231;28;45900;-71
2022/05/19 00:38:44;;;;;;;;;13.50;13.50;;;;;24.39;55.51;100681.34;4975152;28;45331;-70
2022/05/19 00:41:11;;;;;;;;;14.25;14.25;;;;;24.32;55.42;100666.81;4973247;28;45315;-69
2022/05/19 00:43:42;;;;;;;;;17.75;16.00;;;;;24.26;55.66;100659.34;4973387;28;45370;-66
2022/05/19 00:46:18;;;;;;;;;15.25;14.25;;;;;24.20;55.78;100655.41;4972843;28;45910;-67
2022/05/19 00:49:05;;;;;;;;;17.25;14.25;;;;;24.14;56.24;100654.19;4973076;28;45358;-67
2022/05/19 00:51:40;;;;;;;;;13.50;13.50;;;;;24.10;56.52;100654.63;4973422;28;45515;-67
2022/05/19 00:54:09;;;;;;;;;15.00;15.00;;;;;24.02;56.48;100653.50;4972800;28;46319;-67
2022/05/19 00:56:43;;;;;;;;;14.00;14.00;;;;;23.99;56.69;100643.03;4973641;28;45333;-67
2022/05/19 00:59:11;;;;;;;;;13.25;13.25;;;;;23.96;56.75;100645.19;4974293;28;45289;-69
2022/05/19 01:01:42;;;;;;;;;17.75;17.75;;;;;23.88;56.76;100629.78;4972974;28;45520;-67
2022/05/19 01:04:47;;;;;;;;;12.25;12.25;;;;;23.87;56.91;100636.16;4972746;28;46384;-67
2022/05/19 01:07:21;;;;;;;;;12.00;12.00;;;;;23.81;57.40;100636.75;5002174;28;45450;-68
2022/05/19 01:09:50;;;;;;;;;13.50;13.50;;;;;23.75;57.50;100622.91;4972597;28;45189;-67
2022/05/19 01:12:16;;;;;;;;;12.75;12.75;;;;;23.72;57.88;100619.66;4972919;28;45509;-67
2022/05/19 01:14:41;;;;;;;;;13.75;13.75;;;;;23.69;57.72;100619.97;4970993;28;45387;-68
2022/05/19 01:17:07;;;;;;;;;14.00;13.00;;;;;23.68;57.89;100619.13;4973004;28;45387;-67
2022/05/19 01:19:52;;;;;;;;;12.75;12.75;;;;;23.66;58.01;100618.44;4973004;28;45354;-68
2022/05/19 01:22:32;;;;;;;;;12.25;12.25;;;;;23.64;58.33;100620.41;4972894;28;45323;-68
2022/05/19 01:24:57;;;;;;;;;14.75;13.00;;;;;23.62;58.46;100614.34;4972859;28;45451;-69
2022/05/19 01:27:22;;;;;;;;;14.75;13.75;;;;;23.57;58.88;100617.47;4974933;28;45211;-67
2022/05/19 01:29:48;;;;;;;;;13.25;13.25;;;;;23.56;58.45;100615.75;4973147;28;45309;-68
2022/05/19 01:32:27;;;;;;;;;15.75;14.50;;;;;23.55;58.83;100614.06;4972560;28;45260;-67
2022/05/19 01:34:53;;;;;;;;;13.75;12.00;;;;;23.54;58.95;100614.22;4972535;28;45410;-68
2022/05/19 01:37:19;;;;;;;;;13.50;12.00;;;;;23.48;58.75;100608.47;4971689;28;45388;-67
2022/05/19 01:39:50;;;;;;;;;13.75;12.50;;;;;23.52;59.35;100613.53;4973015;28;45393;-69
2022/05/19 01:42:27;;;;;;;;;13.50;12.50;;;;;23.51;59.23;100609.16;4973163;28;45273;-68
2022/05/19 01:45:31;;;;;;;;;15.00;14.25;;;;;23.51;59.41;100617.22;4988275;28;47845;-67
2022/05/19 01:48:13;;;;;;;;;18.00;13.50;;;;;23.48;59.29;100615.66;5005917;28;45452;-67
2022/05/19 01:51:03;;;;;;;;;13.25;13.25;;;;;23.45;59.72;100616.81;4972564;28;45349;-68
2022/05/19 01:53:37;;;;;;;;;13.75;12.00;;;;;23.45;59.84;100626.69;4975942;28;45345;-68
2022/05/19 01:56:23;;;;;;;;;17.50;14.00;;;;;23.39;59.96;100616.53;4976551;28;45418;-67
2022/05/19 01:58:51;;;;;;;;;13.25;13.25;;;;;23.40;59.92;100620.91;4976204;28;45314;-68
2022/05/19 02:01:22;;;;;;;;;23.75;17.25;;;;;23.38;59.82;100613.00;4974708;28;45352;-68
2022/05/19 02:04:18;;;;;;;;;14.50;14.50;;;;;23.36;60.36;100606.94;4975320;28;45479;-67
2022/05/19 02:06:55;;;;;;;;;14.00;14.00;;;;;23.36;60.11;100609.63;4975009;28;45329;-68
2022/05/19 02:09:28;;;;;;;;;16.00;13.75;;;;;23.34;59.95;100606.25;4974973;28;45276;-68
2022/05/19 02:11:56;;;;;;;;;15.50;14.25;;;;;23.33;60.45;100615.28;4973799;28;45314;-68
2022/05/19 02:14:27;;;;;;;;;15.00;13.00;;;;;23.33;60.09;100609.91;4975028;28;45176;-68
2022/05/19 02:16:54;;;;;;;;;16.75;15.25;;;;;23.33;60.39;100616.13;4975217;28;46490;-68
2022/05/19 02:19:26;;;;;;;;;13.00;13.00;;;;;23.31;60.53;100609.19;4974202;28;45242;-68
2022/05/19 02:21:52;;;;;;;;;15.00;13.25;;;;;23.33;60.22;100617.97;4973224;28;45383;-69
2022/05/19 02:24:22;;;;;;;;;15.00;12.25;;;;;23.34;60.74;100619.66;4974751;28;45582;-67
2022/05/19 02:26:48;;;;;;;;;13.25;13.25;;;;;23.34;60.22;100628.53;4975594;28;46213;-68
2022/05/19 02:29:19;;;;;;;;;13.75;12.75;;;;;23.33;60.71;100615.28;4974336;28;45287;-67
2022/05/19 02:31:45;;;;;;;;;14.00;14.00;;;;;23.32;60.20;100618.91;4974622;28;45375;-67
2022/05/19 02:34:11;;;;;;;;;15.50;13.25;;;;;23.32;61.16;100618.91;4974574;28;45504;-67
2022/05/19 02:36:37;;;;;;;;;16.50;14.00;;;;;23.29;60.99;100619.22;4974652;28;46107;-68
2022/05/19 02:39:03;;;;;;;;;15.75;14.00;;;;;23.28;60.73;100615.69;4976511;28;45170;-67
2022/05/19 02:41:28;;;;;;;;;10.75;10.75;;;;;23.29;61.14;100608.47;4975715;28;45351;-67
2022/05/19 02:43:54;;;;;;;;;17.50;14.50;;;;;23.26;60.97;100612.31;4974888;28;45327;-67
2022/05/19 02:46:19;;;;;;;;;17.25;14.50;;;;;23.27;61.25;100619.38;4973439;28;45566;-68
2022/05/19 02:48:45;;;;;;;;;15.25;14.00;;;;;23.26;60.85;100615.00;4974624;28;45475;-68
2022/05/19 02:51:10;;;;;;;;;16.50;15.00;;;;;23.23;60.97;100615.25;4974543;28;45375;-69
2022/05/19 02:53:35;;;;;;;;;15.00;14.75;;;;;23.25;60.84;100613.31;4974508;28;45270;-69
2022/05/19 02:56:02;;;;;;;;;18.75;15.25;;;;;23.25;61.40;100617.81;4974121;28;45377;-67
2022/05/19 02:58:28;;;;;;;;;16.25;16.25;;;;;23.23;61.11;100612.56;4975895;28;45318;-68
2022/05/19 03:00:53;;;;;;;;;14.25;14.25;;;;;23.19;61.01;100608.47;4974192;28;45339;-67
2022/05/19 03:03:19;;;;;;;;;13.50;13.50;;;;;23.18;61.31;100618.34;4973667;28;45345;-68
2022/05/19 03:05:44;;;;;;;;;14.75;14.75;;;;;23.15;61.63;100615.94;4973789;28;46032;-67
2022/05/19 03:08:10;;;;;;;;;18.25;14.25;;;;;23.13;61.64;100609.88;4974308;28;45339;-67
2022/05/19 03:10:37;;;;;;;;;15.50;14.25;;;;;23.11;61.64;100622.59;4975768;28;45245;-68
2022/05/19 03:13:04;;;;;;;;;13.00;13.00;;;;;23.10;61.98;100625.44;4974361;28;45312;-68
2022/05/19 03:15:31;;;;;;;;;17.75;17.75;;;;;23.08;61.88;100622.88;4974182;28;45327;-67
2022/05/19 03:17:57;;;;;;;;;14.75;14.75;;;;;23.04;62.12;100613.44;4975842;28;45334;-67
2022/05/19 03:20:22;;;;;;;;;15.75;14.75;;;;;23.03;62.19;100617.97;4975856;28;45277;-68
2022/05/19 03:22:48;;;;;;;;;16.75;16.00;;;;;23.02;62.02;100610.03;4974512;28;45310;-68
2022/05/19 03:25:13;;;;;;;;;16.25;14.50;;;;;23.01;62.15;100601.16;4973946;28;45349;-67
2022/05/19 03:27:39;;;;;;;;;18.75;14.50;;;;;23.01;62.18;100605.66;4974007;28;45431;-66
2022/05/19 03:30:09;;;;;;;;;14.50;13.50;;;;;23.01;62.20;100609.22;4975349;28;45239;-68
2022/05/19 03:32:35;;;;;;;;;15.75;15.75;;;;;22.96;62.12;100608.78;4974725;28;45621;-67
2022/05/19 03:35:00;;;;;;;;;16.00;15.00;;;;;22.99;62.10;100616.56;4973746;28;45542;-69
2022/05/19 03:37:26;;;;;;;;;17.00;16.00;;;;;22.98;62.15;100611.31;4975906;28;45299;-68
2022/05/19 03:39:51;;;;;;;;;15.25;13.25;;;;;22.99;62.29;100613.00;4974053;28;45884;-68
2022/05/19 03:42:17;;;;;;;;;16.25;16.25;;;;;22.93;62.39;100606.41;4973958;28;45577;-66
2022/05/19 03:44:42;;;;;;;;;12.00;12.00;;;;;22.97;62.19;100606.94;4972357;28;47987;-68
2022/05/19 03:47:07;;;;;;;;;15.75;14.75;;;;;22.92;62.30;100599.34;4975277;28;45259;-67
2022/05/19 03:49:33;;;;;;;;;15.50;15.50;;;;;22.95;62.32;100608.91;4974870;28;45455;-68
2022/05/19 03:51:59;;;;;;;;;18.00;15.00;;;;;22.88;62.60;100604.13;4974431;28;45404;-69
2022/05/19 03:54:24;;;;;;;;;18.00;15.25;;;;;22.90;62.26;100615.56;4974165;28;46433;-66
2022/05/19 03:56:49;;;;;;;;;18.75;17.25;;;;;22.91;62.48;100616.41;4973915;28;45248;-69
2022/05/19 03:59:15;;;;;;;;;16.25;16.25;;;;;22.87;62.49;100605.13;4974413;28;45275;-68
2022/05/19 04:01:41;;;;;;;;;15.75;15.75;;;;;22.87;62.53;100605.13;4973806;28;45666;-67
2022/05/19 04:04:07;;;;;;;;;17.25;16.00;;;;;22.85;62.12;100615.13;4973162;28;46324;-68
2022/05/19 04:06:34;;;;;;;;;14.50;14.50;;;;;22.57;62.75;100565.88;4973907;28;45464;-69
2022/05/19 04:09:00;;;;;;;;;15.50;15.50;;;;;22.87;62.31;100618.53;4973673;28;45333;-66
2022/05/19 04:11:26;;;;;;;;;14.00;13.75;;;;;22.85;62.31;100619.66;4975225;28;45320;-67
2022/05/19 04:13:52;;;;;;;;;14.75;14.50;;;;;22.85;62.58;100617.00;4973769;28;45358;-67
2022/05/19 04:16:17;;;;;;;;;14.25;13.00;;;;;22.86;62.51;100613.31;4974428;28;45294;-68
2022/05/19 04:18:42;;;;;;;;;18.00;16.00;;;;;22.84;63.18;100609.94;4974780;28;45338;-69
2022/05/19 04:21:07;;;;;;;;;13.75;13.75;;;;;22.76;62.61;100598.03;4973630;28;45553;-68
2022/05/19 04:23:33;;;;;;;;;16.25;15.50;;;;;22.82;63.10;100611.91;4973773;28;45407;-68
2022/05/19 04:25:59;;;;;;;;;14.00;13.75;;;;;22.83;62.90;100609.06;4973300;28;45336;-68
2022/05/19 04:28:24;;;;;;;;;16.00;16.00;;;;;22.81;63.12;100604.84;4973425;27;45204;-68
2022/05/19 04:30:50;;;;;;;;;12.50;12.50;;;;;22.81;62.66;100612.91;4973493;28;45478;-69
2022/05/19 04:33:15;;;;;;;;;17.25;14.25;;;;;22.85;62.80;100617.81;4972528;28;46026;-68
2022/05/19 04:35:40;;;;;;;;;12.75;12.00;;;;;22.85;62.93;100609.78;4973182;28;45357;-68
2022/05/19 04:38:16;;;;;;;;;15.25;12.25;;;;;22.86;62.67;100613.31;4974181;28;45257;-67
2022/05/19 04:40:47;;;;;;;;;14.50;14.50;;;;;22.88;62.95;100616.69;4972424;28;45486;-68
2022/05/19 04:43:13;;;;;;;;;15.75;14.25;;;;;22.89;62.44;100615.72;4974756;28;45403;-69
2022/05/19 04:45:38;;;;;;;;;17.25;15.00;;;;;22.93;62.53;100614.44;4974226;28;45308;-67
2022/05/19 04:48:04;;;;;;;;;16.75;16.75;;;;;22.95;62.50;100620.50;4973763;28;45274;-68
2022/05/19 04:50:29;;;;;;;;;19.50;18.00;;;;;22.99;62.49;100623.75;4974950;28;45177;-66
2022/05/19 04:52:58;;;;;;;;;18.25;15.50;;;;;23.02;63.15;100618.94;4972421;28;45375;-68
2022/05/19 04:55:24;;;;;;;;;14.75;13.00;;;;;23.08;62.71;100633.63;4972681;28;45429;-69
2022/05/19 04:57:50;;;;;;;;;15.50;15.50;;;;;23.11;63.00;100638.69;4972049;28;45351;-68
2022/05/19 05:00:15;;;;;;;;;16.50;14.75;;;;;23.14;62.53;100646.47;4973146;28;45371;-68
2022/05/19 05:02:41;;;;;;;;;13.25;13.25;;;;;23.17;62.18;100672.16;4972804;28;45421;-69
2022/05/19 05:05:07;;;;;;;;;12.25;12.00;;;;;23.20;62.04;100664.66;4973558;28;45372;-68
2022/05/19 05:07:33;;;;;;;;;15.00;14.50;;;;;23.27;62.44;100673.03;4973399;28;45393;-68
2022/05/19 05:09:58;;;;;;;;;20.00;14.25;;;;;23.30;62.10;100674.56;4973173;28;45327;-68
2022/05/19 05:12:24;;;;;;;;;16.00;16.00;;;;;23.36;61.80;100686.59;4972410;28;45351;-69
2022/05/19 05:14:49;;;;;;;;;17.75;17.25;;;;;23.35;61.97;100675.03;4972504;28;45218;-69
2022/05/19 05:17:16;;;;;;;;;17.00;17.00;;;;;23.41;61.88;100682.50;4973104;28;45352;-67
2022/05/19 05:19:41;;;;;;;;;22.00;20.00;;;;;23.37;61.52;100675.72;4974143;28;45346;-67
2022/05/19 05:22:07;;;;;;;;;15.25;15.25;;;;;23.46;61.27;100707.06;4972764;28;46084;-67
2022/05/19 05:24:33;;;;;;;;;18.75;18.75;;;;;23.47;61.29;100735.63;4972744;28;45315;-68
2022/05/19 05:26:59;;;;;;;;;17.25;15.50;;;;;23.47;61.10;100740.97;4970588;28;45449;-67
2022/05/19 05:29:24;;;;;;;;;18.25;16.75;;;;;23.47;60.70;100703.41;4972797;28;45565;-67
2022/05/19 05:31:50;;;;;;;;;18.25;18.25;;;;;23.52;61.18;100697.59;4971990;28;46142;-68
2022/05/19 05:34:16;;;;;;;;;18.25;18.00;;;;;23.56;61.12;100725.00;4972189;28;45425;-69
2022/05/19 05:36:42;;;;;;;;;13.50;13.25;;;;;23.60;61.34;100737.97;4972888;28;45313;-68
2022/05/19 05:39:08;;;;;;;;;18.25;17.25;;;;;23.63;60.94;100732.31;4972208;28;45212;-67
2022/05/19 05:41:34;;;;;;;;;19.25;16.75;;;;;23.70;61.15;100732.63;4970587;28;47123;-69
2022/05/19 05:43:59;;;;;;;;;19.00;19.00;;;;;23.78;60.74;100737.25;4971955;28;45516;-69
2022/05/19 05:46:24;;;;;;;;;22.50;18.75;;;;;23.80;60.91;100713.78;4972032;28;45261;-69
2022/05/19 05:48:51;;;;;;;;;19.75;19.00;;;;;23.92;60.70;100730.59;4972171;28;45271;-69
2022/05/19 05:51:17;;;;;;;;;19.75;18.50;;;;;23.97;59.96;100724.78;4971898;28;46093;-69
2022/05/19 05:53:44;;;;;;;;;17.75;16.25;;;;;24.03;60.13;100716.16;4972968;28;45271;-67
2022/05/19 05:56:12;;;;;;;;;18.25;18.25;;;;;24.11;59.84;100720.78;4955559;28;45329;-68
2022/05/19 05:58:38;;;;;;;;;15.00;14.50;;;;;24.19;59.13;100713.69;4972296;28;45426;-68
2022/05/19 06:01:07;;;;;;;;;18.00;15.00;;;;;24.26;59.18;100713.94;4971495;28;45394;-67
2022/05/19 06:03:33;;;;;;;;;18.50;18.50;;;;;24.35;59.19;100723.78;4973426;28;45425;-67
2022/05/19 06:05:59;;;;;;;;;18.75;18.75;;;;;24.40;59.24;100717.16;4973241;28;45224;-67
2022/05/19 06:08:25;;;;;;;;;21.00;16.50;;;;;24.56;58.77;100711.97;4971364;28;45582;-66
2022/05/19 06:10:51;;;;;;;;;21.50;19.00;;;;;24.67;58.32;100704.69;4971726;28;45327;-68
2022/05/19 06:13:16;;;;;;;;;21.00;21.00;;;;;24.78;57.72;100704.50;4971927;28;45319;-69
2022/05/19 06:15:42;;;;;;;;;14.75;14.75;;;;;24.83;57.13;100699.50;4972210;28;45389;-71
2022/05/19 06:18:08;;;;;;;;;19.00;18.50;;;;;24.92;56.83;100701.28;4972972;28;45536;-68
2022/05/19 06:20:34;;;;;;;;;18.25;18.25;;;;;24.95;57.09;100713.59;4971935;28;45323;-68
2022/05/19 06:23:00;;;;;;;;;20.50;20.25;;;;;25.01;56.69;100722.88;4971729;28;45300;-68
2022/05/19 06:25:26;;;;;;;;;13.75;13.75;;;;;25.07;56.65;100730.34;4971916;28;45350;-68
2022/05/19 06:27:52;;;;;;;;;19.25;18.00;;;;;25.06;56.83;100718.75;4972596;28;45536;-68
2022/05/19 06:30:19;;;;;;;;;18.25;17.25;;;;;25.13;56.25;100727.03;4973217;28;45214;-69
2022/05/19 06:32:47;;;;;;;;;15.00;13.50;;;;;25.18;55.78;100723.91;4973173;28;45444;-68
2022/05/19 06:35:15;;;;;;;;;20.25;19.00;;;;;25.22;56.38;100728.81;4973511;28;45286;-68
2022/05/19 06:37:40;;;;;;;;;18.00;16.50;;;;;25.31;55.74;100718.09;4975348;28;45207;-69
2022/05/19 06:40:07;;;;;;;;;16.00;15.75;;;;;25.40;55.68;100716.34;4976675;28;45304;-69
2022/05/19 06:42:33;;;;;;;;;15.50;15.50;;;;;25.47;55.54;100714.75;4976546;28;45364;-68
2022/05/19 06:45:00;;;;;;;;;19.50;17.00;;;;;25.48;55.52;100698.44;4975834;28;45323;-68
2022/05/19 06:47:26;;;;;;;;;15.25;15.25;;;;;25.59;55.40;100720.75;4976382;28;45402;-68
2022/05/19 06:49:52;;;;;;;;;16.75;16.75;;;;;25.62;54.84;100723.13;4975603;28;45789;-69
2022/05/19 06:52:26;;;;;;;;;25.25;25.00;;;;;25.71;54.49;100724.88;4975633;28;45372;-67
2022/05/19 06:54:56;;;;;;;;;17.50;17.50;;;;;25.76;55.27;100736.00;4975854;28;45409;-67
2022/05/19 06:57:23;;;;;;;;;18.00;17.00;;;;;25.85;54.82;100741.47;4974360;28;45634;-68
2022/05/19 06:59:50;;;;;;;;;21.75;21.50;;;;;25.85;54.89;100718.03;4974019;28;46905;-68
2022/05/19 07:02:16;;;;;;;;;21.75;21.75;;;;;26.01;54.54;100735.34;4974996;28;45417;-68
2022/05/19 07:04:43;;;;;;;;;22.25;22.00;;;;;26.10;54.37;100735.19;4975928;28;45425;-68
2022/05/19 07:07:09;;;;;;;;;19.00;17.75;;;;;26.11;54.27;100733.38;4976440;28;45396;-69
2022/05/19 07:09:36;;;;;;;;;20.00;19.00;;;;;26.16;53.99;100739.16;4990495;27;48163;-68
2022/05/19 07:12:04;;;;;;;;;19.00;18.25;;;;;26.18;53.71;100737.16;4975100;28;45414;-68
2022/05/19 07:14:30;;;;;;;;;17.75;17.75;;;;;26.23;53.87;100750.13;4975495;28;45370;-68
2022/05/19 07:16:55;;;;;;;;;20.00;19.75;;;;;26.22;53.46;100746.59;4974940;28;45386;-68
2022/05/19 07:22:07;;;;;;;;;17.50;17.00;;;;;26.15;53.44;100745.56;4975349;28;45495;-67
2022/05/19 07:24:32;;;;;;;;;19.00;19.00;;;;;26.11;53.77;100738.75;4975298;28;45453;-68
2022/05/19 07:26:59;;;;;;;;;19.25;19.25;;;;;26.08;53.76;100739.09;4975647;28;45510;-67
2022/05/19 07:29:26;;;;;;;;;19.75;19.75;;;;;26.06;54.07;100735.69;4975146;28;45991;-67
2022/05/19 07:31:52;;;;;;;;;18.00;17.50;;;;;25.93;54.12;100728.88;4976163;27;45287;-67
2022/05/19 07:34:22;;;;;;;;;24.75;21.00;;;;;25.89;53.98;100740.13;4991100;27;45430;-69
2022/05/19 07:36:48;;;;;;;;;19.50;19.50;;;;;25.84;54.22;100734.38;4976082;28;45449;-69
2022/05/19 07:39:14;;;;;;;;;20.00;19.00;;;;;25.78;54.38;100725.94;4975292;28;46232;-68
2022/05/19 07:41:40;;;;;;;;;18.00;18.00;;;;;25.78;54.25;100741.22;4974220;28;46178;-71
2022/05/19 07:44:07;;;;;;;;;22.25;20.50;;;;;25.80;54.71;100758.94;4975583;28;45449;-68
2022/05/19 07:46:34;;;;;;;;;21.25;19.00;;;;;25.79;54.51;100749.16;4991009;28;45357;-70
2022/05/19 07:49:00;;;;;;;;;23.50;21.50;;;;;25.77;54.30;100750.31;4974575;28;45564;-67
2022/05/19 07:51:36;;;;;;;;;21.00;21.00;;;;;25.80;54.62;100750.00;4973414;28;45542;-69
2022/05/19 07:54:03;;;;;;;;;20.75;20.00;;;;;25.88;54.55;100746.53;4974719;28;45425;-68
2022/05/19 07:56:29;;;;;;;;;27.25;22.50;;;;;25.98;54.47;100757.19;4974855;27;45379;-69
2022/05/19 07:58:54;;;;;;;;;24.25;20.75;;;;;26.04;54.36;100757.41;4990021;27;46989;-69
2022/05/19 08:01:20;;;;;;;;;24.25;23.25;;;;;26.10;53.74;100764.84;4975901;27;45269;-68
2022/05/19 08:03:45;;;;;;;;;22.00;20.50;;;;;26.11;53.95;100763.84;4978644;28;45415;-68
2022/05/19 08:06:11;;;;;;;;;18.75;18.25;;;;;26.12;53.60;100762.00;4977699;28;45524;-66
2022/05/19 08:08:39;;;;;;;;;19.00;18.25;;;;;26.27;53.87;100783.00;4974468;28;48540;-67
2022/05/19 08:11:05;;;;;;;;;18.75;17.00;;;;;26.35;52.97;100789.28;4974746;28;45579;-69
2022/05/19 08:16:14;;;;;;;;;17.50;16.00;;;;;26.45;52.62;100788.31;4975600;28;45372;-68
2022/05/19 08:18:40;;;;;;;;;18.00;18.00;;;;;26.56;52.58;100792.59;4974034;28;48642;-67
2022/05/19 08:21:11;;;;;;;;;19.50;19.50;;;;;26.67;52.43;100795.84;4974057;28;45307;-68
2022/05/19 08:23:39;;;;;;;;;22.25;19.00;;;;;26.82;51.86;100801.47;4974654;28;45161;-68
2022/05/19 08:26:08;;;;;;;;;19.50;18.00;;;;;26.80;51.73;100791.84;4975175;28;45284;-67
2022/05/19 08:28:35;;;;;;;;;16.75;16.75;;;;;26.73;51.64;100766.53;4974205;28;45628;-67
2022/05/19 08:31:03;;;;;;;;;22.50;19.75;;;;;27.07;51.33;100798.03;4974335;28;45427;-68
2022/05/19 08:33:30;;;;;;;;;22.25;20.75;;;;;27.17;51.47;100812.22;4974490;28;45208;-69
2022/05/19 08:35:56;;;;;;;;;22.25;20.75;;;;;27.21;51.36;100835.19;4975375;28;45255;-69
2022/05/19 08:38:21;;;;;;;;;20.50;20.50;;;;;27.08;51.38;100845.59;4975034;28;45476;-66
2022/05/19 08:40:55;;;;;;;;;24.00;20.00;;;;;27.02;52.03;100851.66;4974465;28;45474;-67
2022/05/19 08:43:26;;;;;;;;;20.25;16.00;;;;;26.90;52.20;100864.59;4973548;28;45432;-68
2022/05/19 08:45:58;;;;;;;;;18.75;16.50;;;;;26.63;51.95;100864.63;4973150;28;45537;-67
2022/05/19 08:48:26;;;;;;;;;15.00;15.00;;;;;26.35;51.42;100888.22;4973239;28;45747;-68
2022/05/19 08:50:57;;;;;;;;;18.00;16.75;;;;;26.15;51.94;100884.88;4973720;28;45227;-68
2022/05/19 08:53:33;;;;;;;;;13.75;13.75;;;;;25.94;52.37;100881.47;4974537;28;45372;-67
2022/05/19 08:56:23;;;;;;;;;16.25;16.25;;;;;25.79;52.26;100894.66;4989415;28;45344;-67
2022/05/19 08:59:11;;;;;;;;;16.50;13.50;;;;;25.56;52.21;100882.66;4973173;28;46403;-68
2022/05/19 09:01:36;;;;;;;;;15.50;13.00;;;;;25.35;52.70;100892.66;4971803;28;45480;-68
2022/05/19 09:04:26;;;;;;;;;6.00;6.00;;;;;25.27;52.86;100879.09;4972792;28;45334;-67
2022/05/19 09:10:34;;;;;;;;;18.00;15.25;;;;;25.53;53.31;100902.63;4972825;28;45259;-69
2022/05/19 09:13:18;;;;;;;;;16.50;14.75;;;;;25.69;52.95;100911.88;4972772;28;45242;-69
2022/05/19 09:15:45;;;;;;;;;12.25;12.25;;;;;25.73;52.03;100915.97;4973271;28;45343;-69
2022/05/19 09:18:14;;;;;;;;;10.00;10.00;;;;;25.54;51.67;100915.09;4973296;28;45547;-67
2022/05/19 09:20:46;;;;;;;;;11.75;10.00;;;;;25.57;51.97;100928.25;4972472;28;46184;-68
2022/05/19 09:23:12;;;;;;;;;9.50;7.00;;;;;25.56;51.24;100940.03;4972318;27;45494;-67
2022/05/19 09:25:44;;;;;;;;;9.75;8.75;;;;;25.61;50.48;100934.22;4973988;28;45445;-68
2022/05/19 09:28:12;;;;;;;;;13.00;12.50;;;;;25.64;50.34;100950.91;4973053;28;45425;-69
2022/05/19 09:30:53;;;;;;;;;13.00;11.00;;;;;25.54;50.37;100979.75;4974133;28;46223;-69
2022/05/19 09:33:22;;;;;;;;;11.50;11.50;;;;;25.31;50.38;100955.03;4973525;28;45264;-68
2022/05/19 09:35:56;;;;;;;;;17.25;14.50;;;;;25.13;50.97;100969.28;4974281;28;45409;-69
2022/05/19 09:38:26;;;;;;;;;18.75;18.00;;;;;25.00;50.61;100966.94;4973636;28;45205;-70
2022/05/19 09:40:58;;;;;;;;;20.75;20.75;;;;;24.88;51.01;100958.19;4973239;28;46162;-69
2022/05/19 09:43:39;;;;;;;;;22.25;20.50;;;;;24.81;51.04;100978.59;4971004;28;45263;-70
2022/05/19 09:46:14;;;;;;;;;20.50;20.50;;;;;24.74;50.91;100982.84;4972640;28;45181;-70
2022/05/19 09:48:57;;;;;;;;;24.50;24.25;;;;;24.70;50.67;100992.19;4971705;28;45363;-69
2022/05/19 09:51:29;;;;;;;;;20.00;20.00;;;;;24.57;50.70;100987.94;4973186;28;46282;-68
2022/05/19 09:53:59;;;;;;;;;19.75;16.75;;;;;24.60;50.44;101008.31;4973479;28;45475;-67
2022/05/19 09:56:34;;;;;;;;;19.75;19.25;;;;;24.70;50.68;101011.00;4987879;27;45224;-69
2022/05/19 09:59:07;;;;;;;;;19.75;17.00;;;;;24.91;50.34;101017.06;4973454;28;45273;-68
2022/05/19 10:01:39;;;;;;;;;12.00;12.00;;;;;24.95;50.00;101020.34;4972348;28;46260;-68
2022/05/19 10:04:15;;;;;;;;;16.75;16.75;;;;;25.05;49.87;101031.06;4972330;28;45477;-68
2022/05/19 10:07:05;;;;;;;;;17.25;14.25;;;;;25.18;49.48;101026.19;4970939;28;45319;-70
2022/05/19 10:09:33;;;;;;;;;8.75;7.00;;;;;25.21;49.00;101028.59;4972749;28;45223;-67
2022/05/19 10:12:08;;;;;;;;;7.50;7.50;;;;;25.21;48.40;101011.63;4971549;28;45377;-68
2022/05/19 10:14:33;;;;;;;;;9.00;9.00;;;;;25.16;49.05;101014.72;4975495;28;45387;-68
2022/05/19 10:17:16;;;;;;;;;10.75;8.75;;;;;25.11;49.06;101010.81;4974716;28;45553;-69
2022/05/19 10:20:12;;;;;;;;;9.00;9.00;;;;;25.14;48.83;101013.19;4975372;28;45250;-69
2022/05/19 10:23:19;;;;;;;;;10.00;8.75;;;;;25.17;48.74;101024.50;4976260;28;45592;-70
2022/05/19 10:25:59;;;;;;;;;9.75;7.75;;;;;25.09;48.84;101048.63;4973447;28;45969;-69
2022/05/19 10:31:37;;;;;;;;;7.50;6.75;;;;;25.19;47.98;101048.59;4975728;28;45419;-67
2022/05/19 10:34:12;;;;;;;;;7.25;7.25;;;;;25.17;48.44;101047.91;4975810;28;46063;-70
2022/05/19 10:36:54;;;;;;;;;6.50;6.50;;;;;25.31;48.11;101044.72;4974648;28;45391;-67
2022/05/19 10:39:22;;;;;;;;;8.00;6.25;;;;;25.57;47.53;101043.25;4976384;28;45276;-69
2022/05/19 10:42:13;;;;;;;;;8.00;6.75;;;;;25.85;47.51;101041.38;4975685;28;45617;-69
2022/05/19 10:44:55;;;;;;;;;6.75;6.25;;;;;26.15;45.52;101031.31;4974918;28;45865;-68
2022/05/19 10:47:21;;;;;;;;;9.00;4.75;;;;;26.40;44.61;101043.16;4974977;28;45198;-68
2022/05/19 10:49:55;;;;;;;;;6.25;6.25;;;;;26.63;44.40;101036.44;4974792;28;45251;-69
2022/05/19 10:52:44;;;;;;;;;4.25;3.50;;;;;26.88;42.40;101033.94;4975441;28;45204;-68
2022/05/19 10:55:25;;;;;;;;;3.25;3.25;;;;;27.17;43.02;101044.44;4974851;28;48507;-68
2022/05/19 10:58:04;;;;;;;;;1.25;1.25;;;;;27.52;41.23;101050.72;4976311;28;45283;-69
2022/05/19 11:00:44;;;;;;;;;2.00;1.25;;;;;27.52;40.61;101049.88;4975030;28;45457;-68
2022/05/19 11:03:34;;;;;;;;;2.00;2.00;;;;;27.48;40.82;101053.88;4974885;28;45180;-70
2022/05/19 11:06:27;;;;;;;;;3.00;3.00;;;;;27.51;39.42;101037.38;4976028;28;45900;-70
2022/05/19 11:09:28;;;;;;;;;4.25;4.25;;;;;27.59;40.00;101039.28;4975695;28;45207;-70
2022/05/19 11:12:13;;;;;;;;;1.25;1.25;;;;;27.67;40.56;101040.13;4975445;27;45268;-68
2022/05/19 11:14:48;;;;;;;;;2.50;1.00;;;;;27.72;40.14;101031.56;4975210;28;45303;-69
2022/05/19 11:17:19;;;;;;;;;2.25;0.75;;;;;27.81;39.60;101035.97;4974328;28;45465;-68
2022/05/19 11:20:15;;;;;;;;;2.75;2.75;;;;;27.84;39.79;101037.47;4974318;27;45406;-67
2022/05/19 11:22:41;;;;;;;;;1.00;1.00;;;;;27.85;39.39;101040.03;4972360;27;45327;-67
2022/05/19 11:28:27;;;;;;;;;2.50;1.00;;;;;27.77;38.85;101034.59;4974447;28;45907;-69
2022/05/19 11:30:59;;;;;;;;;3.25;2.25;;;;;27.65;39.16;101025.13;4974796;28;45230;-68
2022/05/19 11:33:37;;;;;;;;;2.00;2.00;;;;;27.82;39.31;101037.66;4974746;28;45362;-69
2022/05/19 11:36:15;;;;;;;;;1.50;1.50;;;;;27.99;39.08;101024.19;4973988;28;45237;-71
2022/05/19 11:38:52;;;;;;;;;3.25;2.25;;;;;28.10;38.55;101013.03;4973802;28;47158;-69
2022/05/19 11:41:23;;;;;;;;;3.00;3.00;;;;;28.25;38.53;101002.47;4974129;28;45481;-70